sensor_id;sensor_type;location;lat;lon;timestamp;temperature;humidity
51476;DHT22;37554;50.362;7.568;2022-10-16T00:02:21;20.80;62.80
51476;DHT22;37554;50.362;7.568;2022-10-16T00:04:46;20.70;62.80
51476;DHT22;37554;50.362;7.568;2022-10-16T00:07:12;20.70;62.80
51476;DHT22;37554;50.362;7.568;2022-10-16T00:09:38;20.80;62.90
51476;DHT22;37554;50.362;7.568;2022-10-16T00:12:03;20.70;62.80
51476;DHT22;37554;50.362;7.568;2022-10-16T00:14:31;20.70;62.80
51476;DHT22;37554;50.362;7.568;2022-10-16T00:16:57;20.80;62.80
51476;DHT22;37554;50.362;7.568;2022-10-16T00:19:23;20.70;62.70
51476;DHT22;37554;50.362;7.568;2022-10-16T00:21:48;20.70;62.70
51476;DHT22;37554;50.362;7.568;2022-10-16T00:24:14;20.70;62.70
51476;DHT22;37554;50.362;7.568;2022-10-16T00:26:40;20.80;62.70
51476;DHT22;37554;50.362;7.568;2022-10-16T00:29:06;20.80;62.60
51476;DHT22;37554;50.362;7.568;2022-10-16T00:31:32;20.80;62.60
51476;DHT22;37554;50.362;7.568;2022-10-16T00:33:57;20.80;62.60
51476;DHT22;37554;50.362;7.568;2022-10-16T00:36:24;20.80;62.60
51476;DHT22;37554;50.362;7.568;2022-10-16T00:38:51;20.70;62.60
51476;DHT22;37554;50.362;7.568;2022-10-16T00:41:19;20.80;62.70
51476;DHT22;37554;50.362;7.568;2022-10-16T00:43:51;20.80;62.60
51476;DHT22;37554;50.362;7.568;2022-10-16T00:46:26;20.80;62.60
51476;DHT22;37554;50.362;7.568;2022-10-16T00:49:10;20.70;62.50
51476;DHT22;37554;50.362;7.568;2022-10-16T00:51:45;20.80;62.60
51476;DHT22;37554;50.362;7.568;2022-10-16T00:54:25;20.70;62.50
51476;DHT22;37554;50.362;7.568;2022-10-16T00:56:51;20.80;62.60
51476;DHT22;37554;50.362;7.568;2022-10-16T00:59:24;20.80;62.50
51476;DHT22;37554;50.362;7.568;2022-10-16T01:01:50;20.80;62.50
51476;DHT22;37554;50.362;7.568;2022-10-16T01:04:17;20.80;62.50
51476;DHT22;37554;50.362;7.568;2022-10-16T01:12:01;20.70;62.50
51476;DHT22;37554;50.362;7.568;2022-10-16T01:14:58;20.70;62.50
51476;DHT22;37554;50.362;7.568;2022-10-16T01:17:40;20.70;62.40
51476;DHT22;37554;50.362;7.568;2022-10-16T01:28:32;20.70;62.40
51476;DHT22;37554;50.362;7.568;2022-10-16T01:31:00;20.70;62.40
51476;DHT22;37554;50.362;7.568;2022-10-16T01:33:34;20.70;62.40
51476;DHT22;37554;50.362;7.568;2022-10-16T01:36:13;20.70;62.50
51476;DHT22;37554;50.362;7.568;2022-10-16T01:38:40;20.70;62.50
51476;DHT22;37554;50.362;7.568;2022-10-16T01:41:11;20.70;62.40
51476;DHT22;37554;50.362;7.568;2022-10-16T01:43:47;20.80;62.50
51476;DHT22;37554;50.362;7.568;2022-10-16T01:46:14;20.70;62.40
51476;DHT22;37554;50.362;7.568;2022-10-16T01:48:42;20.70;62.40
51476;DHT22;37554;50.362;7.568;2022-10-16T01:51:11;20.70;62.40
51476;DHT22;37554;50.362;7.568;2022-10-16T01:53:39;20.80;62.40
51476;DHT22;37554;50.362;7.568;2022-10-16T01:56:08;20.70;62.40
51476;DHT22;37554;50.362;7.568;2022-10-16T01:58:39;20.80;62.50
51476;DHT22;37554;50.362;7.568;2022-10-16T02:01:07;20.80;62.40
51476;DHT22;37554;50.362;7.568;2022-10-16T02:03:36;20.80;62.40
51476;DHT22;37554;50.362;7.568;2022-10-16T02:06:03;20.70;62.40
51476;DHT22;37554;50.362;7.568;2022-10-16T02:08:29;20.80;62.50
51476;DHT22;37554;50.362;7.568;2022-10-16T02:10:57;20.70;62.40
51476;DHT22;37554;50.362;7.568;2022-10-16T02:13:35;20.80;62.40
51476;DHT22;37554;50.362;7.568;2022-10-16T02:16:02;20.80;62.40
51476;DHT22;37554;50.362;7.568;2022-10-16T02:18:29;20.80;62.40
51476;DHT22;37554;50.362;7.568;2022-10-16T02:26:38;20.80;62.30
51476;DHT22;37554;50.362;7.568;2022-10-16T02:29:10;20.70;62.20
51476;DHT22;37554;50.362;7.568;2022-10-16T02:31:41;20.80;62.30
51476;DHT22;37554;50.362;7.568;2022-10-16T02:34:07;20.80;62.30
51476;DHT22;37554;50.362;7.568;2022-10-16T02:36:34;20.80;62.30
51476;DHT22;37554;50.362;7.568;2022-10-16T02:39:02;20.80;62.30
51476;DHT22;37554;50.362;7.568;2022-10-16T02:41:30;20.80;62.30
51476;DHT22;37554;50.362;7.568;2022-10-16T02:43:59;20.80;62.40
51476;DHT22;37554;50.362;7.568;2022-10-16T02:46:25;20.70;62.30
51476;DHT22;37554;50.362;7.568;2022-10-16T02:48:51;20.80;62.30
51476;DHT22;37554;50.362;7.568;2022-10-16T02:51:16;20.80;62.30
51476;DHT22;37554;50.362;7.568;2022-10-16T02:53:42;20.80;62.40
51476;DHT22;37554;50.362;7.568;2022-10-16T02:56:07;20.80;63.00
51476;DHT22;37554;50.362;7.568;2022-10-16T02:58:33;20.70;62.30
51476;DHT22;37554;50.362;7.568;2022-10-16T03:00:59;20.80;62.40
51476;DHT22;37554;50.362;7.568;2022-10-16T03:03:24;20.80;62.50
51476;DHT22;37554;50.362;7.568;2022-10-16T03:05:50;20.80;62.50
51476;DHT22;37554;50.362;7.568;2022-10-16T03:08:15;20.80;62.50
51476;DHT22;37554;50.362;7.568;2022-10-16T03:10:41;20.80;62.50
51476;DHT22;37554;50.362;7.568;2022-10-16T03:13:07;20.70;62.40
51476;DHT22;37554;50.362;7.568;2022-10-16T03:15:32;20.80;62.50
51476;DHT22;37554;50.362;7.568;2022-10-16T03:17:58;20.80;62.50
51476;DHT22;37554;50.362;7.568;2022-10-16T03:20:24;20.80;62.50
51476;DHT22;37554;50.362;7.568;2022-10-16T03:22:50;20.80;62.50
51476;DHT22;37554;50.362;7.568;2022-10-16T03:25:15;20.70;62.50
51476;DHT22;37554;50.362;7.568;2022-10-16T03:27:41;20.80;62.60
51476;DHT22;37554;50.362;7.568;2022-10-16T03:30:07;20.70;62.50
51476;DHT22;37554;50.362;7.568;2022-10-16T03:32:33;20.80;62.50
51476;DHT22;37554;50.362;7.568;2022-10-16T03:34:58;20.80;62.60
51476;DHT22;37554;50.362;7.568;2022-10-16T03:37:24;20.80;62.60
51476;DHT22;37554;50.362;7.568;2022-10-16T03:39:50;20.80;62.60
51476;DHT22;37554;50.362;7.568;2022-10-16T03:42:15;20.80;62.60
51476;DHT22;37554;50.362;7.568;2022-10-16T03:44:41;20.80;62.60
51476;DHT22;37554;50.362;7.568;2022-10-16T03:47:06;20.80;62.60
51476;DHT22;37554;50.362;7.568;2022-10-16T03:49:32;20.80;62.60
51476;DHT22;37554;50.362;7.568;2022-10-16T03:51:57;20.80;62.60
51476;DHT22;37554;50.362;7.568;2022-10-16T03:54:23;20.80;62.50
51476;DHT22;37554;50.362;7.568;2022-10-16T03:56:48;20.80;62.60
51476;DHT22;37554;50.362;7.568;2022-10-16T03:59:14;20.80;62.60
51476;DHT22;37554;50.362;7.568;2022-10-16T04:01:40;20.80;62.60
51476;DHT22;37554;50.362;7.568;2022-10-16T04:04:06;20.80;62.50
51476;DHT22;37554;50.362;7.568;2022-10-16T04:06:31;20.70;62.50
51476;DHT22;37554;50.362;7.568;2022-10-16T04:08:57;20.80;63.10
51476;DHT22;37554;50.362;7.568;2022-10-16T04:11:22;20.80;62.50
51476;DHT22;37554;50.362;7.568;2022-10-16T04:13:48;20.80;62.50
51476;DHT22;37554;50.362;7.568;2022-10-16T04:16:14;20.80;62.50
51476;DHT22;37554;50.362;7.568;2022-10-16T04:18:39;20.80;62.50
51476;DHT22;37554;50.362;7.568;2022-10-16T04:21:06;20.70;62.40
51476;DHT22;37554;50.362;7.568;2022-10-16T04:23:32;20.80;62.50
51476;DHT22;37554;50.362;7.568;2022-10-16T04:25:58;20.80;62.50
51476;DHT22;37554;50.362;7.568;2022-10-16T04:28:23;20.80;62.50
51476;DHT22;37554;50.362;7.568;2022-10-16T04:30:49;20.70;62.40
51476;DHT22;37554;50.362;7.568;2022-10-16T04:33:14;20.80;62.50
51476;DHT22;37554;50.362;7.568;2022-10-16T04:35:40;20.80;62.50
51476;DHT22;37554;50.362;7.568;2022-10-16T04:38:06;20.80;62.40
51476;DHT22;37554;50.362;7.568;2022-10-16T04:40:31;20.80;62.50
51476;DHT22;37554;50.362;7.568;2022-10-16T04:43:03;20.80;62.50
51476;DHT22;37554;50.362;7.568;2022-10-16T04:45:29;20.80;62.40
51476;DHT22;37554;50.362;7.568;2022-10-16T04:47:59;20.80;62.40
51476;DHT22;37554;50.362;7.568;2022-10-16T04:50:24;20.70;62.40
51476;DHT22;37554;50.362;7.568;2022-10-16T04:52:50;20.80;62.40
51476;DHT22;37554;50.362;7.568;2022-10-16T04:55:16;20.80;62.40
51476;DHT22;37554;50.362;7.568;2022-10-16T04:57:41;20.70;62.40
51476;DHT22;37554;50.362;7.568;2022-10-16T05:00:08;20.80;62.40
51476;DHT22;37554;50.362;7.568;2022-10-16T05:02:34;20.70;62.40
51476;DHT22;37554;50.362;7.568;2022-10-16T05:04:59;20.80;62.50
51476;DHT22;37554;50.362;7.568;2022-10-16T05:07:25;20.80;62.50
51476;DHT22;37554;50.362;7.568;2022-10-16T05:09:50;20.70;62.40
51476;DHT22;37554;50.362;7.568;2022-10-16T05:12:16;20.70;62.40
51476;DHT22;37554;50.362;7.568;2022-10-16T05:14:42;20.70;62.50
51476;DHT22;37554;50.362;7.568;2022-10-16T05:17:07;20.70;62.40
51476;DHT22;37554;50.362;7.568;2022-10-16T05:19:33;20.70;62.40
51476;DHT22;37554;50.362;7.568;2022-10-16T05:21:59;20.70;62.40
51476;DHT22;37554;50.362;7.568;2022-10-16T05:24:24;20.70;62.40
51476;DHT22;37554;50.362;7.568;2022-10-16T05:26:50;20.70;62.40
51476;DHT22;37554;50.362;7.568;2022-10-16T05:29:16;20.70;62.40
51476;DHT22;37554;50.362;7.568;2022-10-16T05:31:41;20.70;62.30
51476;DHT22;37554;50.362;7.568;2022-10-16T05:34:07;20.70;62.30
51476;DHT22;37554;50.362;7.568;2022-10-16T05:36:32;20.70;62.30
51476;DHT22;37554;50.362;7.568;2022-10-16T05:38:58;20.70;62.30
51476;DHT22;37554;50.362;7.568;2022-10-16T05:41:23;20.70;63.00
51476;DHT22;37554;50.362;7.568;2022-10-16T05:43:51;20.80;62.40
51476;DHT22;37554;50.362;7.568;2022-10-16T05:46:17;20.70;62.30
51476;DHT22;37554;50.362;7.568;2022-10-16T05:48:43;20.70;62.30
51476;DHT22;37554;50.362;7.568;2022-10-16T05:51:13;20.70;62.40
51476;DHT22;37554;50.362;7.568;2022-10-16T05:53:39;20.70;62.40
51476;DHT22;37554;50.362;7.568;2022-10-16T05:56:07;20.70;62.40
51476;DHT22;37554;50.362;7.568;2022-10-16T05:58:35;20.70;62.40
51476;DHT22;37554;50.362;7.568;2022-10-16T06:01:04;20.70;62.40
51476;DHT22;37554;50.362;7.568;2022-10-16T06:03:30;20.70;62.30
51476;DHT22;37554;50.362;7.568;2022-10-16T06:05:56;20.70;62.30
51476;DHT22;37554;50.362;7.568;2022-10-16T06:08:22;20.70;62.40
51476;DHT22;37554;50.362;7.568;2022-10-16T06:10:49;20.70;62.40
51476;DHT22;37554;50.362;7.568;2022-10-16T06:13:25;20.70;62.40
51476;DHT22;37554;50.362;7.568;2022-10-16T06:15:50;20.70;62.40
51476;DHT22;37554;50.362;7.568;2022-10-16T06:18:16;20.70;62.40
51476;DHT22;37554;50.362;7.568;2022-10-16T06:20:41;20.70;62.30
51476;DHT22;37554;50.362;7.568;2022-10-16T06:23:07;20.70;62.30
51476;DHT22;37554;50.362;7.568;2022-10-16T06:25:33;20.70;62.30
51476;DHT22;37554;50.362;7.568;2022-10-16T06:27:59;20.70;63.10
51476;DHT22;37554;50.362;7.568;2022-10-16T06:30:25;20.80;62.50
51476;DHT22;37554;50.362;7.568;2022-10-16T06:32:50;20.80;62.50
51476;DHT22;37554;50.362;7.568;2022-10-16T06:35:16;20.80;62.70
51476;DHT22;37554;50.362;7.568;2022-10-16T06:37:41;20.80;62.70
51476;DHT22;37554;50.362;7.568;2022-10-16T06:40:07;20.80;62.60
51476;DHT22;37554;50.362;7.568;2022-10-16T06:42:33;20.80;62.50
51476;DHT22;37554;50.362;7.568;2022-10-16T06:44:59;20.80;62.50
51476;DHT22;37554;50.362;7.568;2022-10-16T06:47:24;20.80;62.50
51476;DHT22;37554;50.362;7.568;2022-10-16T06:49:50;20.80;62.50
51476;DHT22;37554;50.362;7.568;2022-10-16T06:52:15;20.80;62.50
51476;DHT22;37554;50.362;7.568;2022-10-16T06:54:41;20.80;62.50
51476;DHT22;37554;50.362;7.568;2022-10-16T06:57:07;20.70;62.40
51476;DHT22;37554;50.362;7.568;2022-10-16T06:59:32;20.70;62.40
51476;DHT22;37554;50.362;7.568;2022-10-16T07:01:58;20.70;62.40
51476;DHT22;37554;50.362;7.568;2022-10-16T07:04:24;20.70;62.40
51476;DHT22;37554;50.362;7.568;2022-10-16T07:06:49;20.70;62.40
51476;DHT22;37554;50.362;7.568;2022-10-16T07:09:17;20.70;62.40
51476;DHT22;37554;50.362;7.568;2022-10-16T07:11:42;20.70;63.00
51476;DHT22;37554;50.362;7.568;2022-10-16T07:14:19;20.70;62.30
51476;DHT22;37554;50.362;7.568;2022-10-16T07:16:45;20.70;62.30
51476;DHT22;37554;50.362;7.568;2022-10-16T07:19:11;20.70;62.30
51476;DHT22;37554;50.362;7.568;2022-10-16T07:21:40;20.70;62.30
51476;DHT22;37554;50.362;7.568;2022-10-16T07:24:10;20.70;62.30
51476;DHT22;37554;50.362;7.568;2022-10-16T07:26:37;20.70;62.40
51476;DHT22;37554;50.362;7.568;2022-10-16T07:29:14;20.70;62.40
51476;DHT22;37554;50.362;7.568;2022-10-16T07:31:41;20.70;62.40
51476;DHT22;37554;50.362;7.568;2022-10-16T07:34:08;20.70;62.30
51476;DHT22;37554;50.362;7.568;2022-10-16T07:36:33;20.60;62.20
51476;DHT22;37554;50.362;7.568;2022-10-16T07:38:59;20.70;62.20
51476;DHT22;37554;50.362;7.568;2022-10-16T07:41:25;20.70;62.20
51476;DHT22;37554;50.362;7.568;2022-10-16T07:43:52;20.70;62.20
51476;DHT22;37554;50.362;7.568;2022-10-16T07:46:19;20.70;62.20
51476;DHT22;37554;50.362;7.568;2022-10-16T07:48:46;20.70;62.20
51476;DHT22;37554;50.362;7.568;2022-10-16T07:51:14;20.70;62.10
51476;DHT22;37554;50.362;7.568;2022-10-16T07:53:40;20.70;62.10
51476;DHT22;37554;50.362;7.568;2022-10-16T07:56:06;20.70;62.10
51476;DHT22;37554;50.362;7.568;2022-10-16T07:58:33;20.70;62.10
51476;DHT22;37554;50.362;7.568;2022-10-16T08:01:04;20.70;62.10
51476;DHT22;37554;50.362;7.568;2022-10-16T08:03:30;20.70;62.10
51476;DHT22;37554;50.362;7.568;2022-10-16T08:05:57;20.70;62.10
51476;DHT22;37554;50.362;7.568;2022-10-16T08:08:23;20.70;62.00
51476;DHT22;37554;50.362;7.568;2022-10-16T08:10:49;20.70;62.00
51476;DHT22;37554;50.362;7.568;2022-10-16T08:13:15;20.70;61.90
51476;DHT22;37554;50.362;7.568;2022-10-16T08:15:42;20.70;61.90
51476;DHT22;37554;50.362;7.568;2022-10-16T08:18:10;20.70;62.10
51476;DHT22;37554;50.362;7.568;2022-10-16T08:20:36;20.70;62.30
51476;DHT22;37554;50.362;7.568;2022-10-16T08:23:02;20.80;62.40
51476;DHT22;37554;50.362;7.568;2022-10-16T08:25:28;20.80;62.40
51476;DHT22;37554;50.362;7.568;2022-10-16T08:27:54;20.70;62.30
51476;DHT22;37554;50.362;7.568;2022-10-16T08:30:21;20.80;62.40
51476;DHT22;37554;50.362;7.568;2022-10-16T08:32:47;20.70;62.90
51476;DHT22;37554;50.362;7.568;2022-10-16T08:35:13;20.60;63.30
51476;DHT22;37554;50.362;7.568;2022-10-16T08:37:40;20.40;64.60
51476;DHT22;37554;50.362;7.568;2022-10-16T08:40:12;20.30;64.30
51476;DHT22;37554;50.362;7.568;2022-10-16T08:51:09;20.60;64.30
51476;DHT22;37554;50.362;7.568;2022-10-16T08:53:46;20.70;64.10
51476;DHT22;37554;50.362;7.568;2022-10-16T08:56:14;20.70;64.10
51476;DHT22;37554;50.362;7.568;2022-10-16T08:58:39;20.70;63.90
51476;DHT22;37554;50.362;7.568;2022-10-16T09:01:12;20.70;63.90
51476;DHT22;37554;50.362;7.568;2022-10-16T09:06:38;20.80;63.90
51476;DHT22;37554;50.362;7.568;2022-10-16T09:12:19;20.80;63.60
51476;DHT22;37554;50.362;7.568;2022-10-16T09:15:13;20.90;63.60
51476;DHT22;37554;50.362;7.568;2022-10-16T09:18:09;20.90;63.40
51476;DHT22;37554;50.362;7.568;2022-10-16T09:20:56;20.90;63.40
51476;DHT22;37554;50.362;7.568;2022-10-16T09:23:30;20.80;63.40
51476;DHT22;37554;50.362;7.568;2022-10-16T09:25:58;20.80;63.40
51476;DHT22;37554;50.362;7.568;2022-10-16T09:28:24;20.80;63.30
51476;DHT22;37554;50.362;7.568;2022-10-16T09:30:50;20.80;63.30
51476;DHT22;37554;50.362;7.568;2022-10-16T09:33:21;20.80;63.30
51476;DHT22;37554;50.362;7.568;2022-10-16T09:35:56;20.80;63.30
51476;DHT22;37554;50.362;7.568;2022-10-16T09:38:27;20.80;63.30
51476;DHT22;37554;50.362;7.568;2022-10-16T09:40:54;20.80;63.30
51476;DHT22;37554;50.362;7.568;2022-10-16T09:43:36;20.80;63.30
51476;DHT22;37554;50.362;7.568;2022-10-16T09:46:07;20.70;63.30
51476;DHT22;37554;50.362;7.568;2022-10-16T09:48:39;20.80;63.20
51476;DHT22;37554;50.362;7.568;2022-10-16T09:51:37;20.80;63.10
51476;DHT22;37554;50.362;7.568;2022-10-16T09:56:35;20.80;62.90
51476;DHT22;37554;50.362;7.568;2022-10-16T09:59:15;20.80;62.90
51476;DHT22;37554;50.362;7.568;2022-10-16T10:01:42;20.80;62.90
51476;DHT22;37554;50.362;7.568;2022-10-16T10:04:10;20.80;62.80
51476;DHT22;37554;50.362;7.568;2022-10-16T10:06:47;20.80;62.70
51476;DHT22;37554;50.362;7.568;2022-10-16T10:09:22;20.90;62.60
51476;DHT22;37554;50.362;7.568;2022-10-16T10:12:22;21.00;62.40
51476;DHT22;37554;50.362;7.568;2022-10-16T10:14:51;21.20;62.10
51476;DHT22;37554;50.362;7.568;2022-10-16T10:17:25;21.30;61.80
51476;DHT22;37554;50.362;7.568;2022-10-16T10:19:56;21.30;61.60
51476;DHT22;37554;50.362;7.568;2022-10-16T10:22:43;21.30;61.50
51476;DHT22;37554;50.362;7.568;2022-10-16T10:30:33;21.40;61.50
51476;DHT22;37554;50.362;7.568;2022-10-16T10:39:05;21.80;60.70
51476;DHT22;37554;50.362;7.568;2022-10-16T10:44:11;22.00;60.30
51476;DHT22;37554;50.362;7.568;2022-10-16T10:57:52;22.30;59.40
51476;DHT22;37554;50.362;7.568;2022-10-16T11:03:46;22.50;59.30
51476;DHT22;37554;50.362;7.568;2022-10-16T11:06:19;22.50;59.10
51476;DHT22;37554;50.362;7.568;2022-10-16T11:11:55;22.60;58.90
51476;DHT22;37554;50.362;7.568;2022-10-16T11:17:26;22.70;58.80
51476;DHT22;37554;50.362;7.568;2022-10-16T11:20:12;22.70;58.60
51476;DHT22;37554;50.362;7.568;2022-10-16T11:27:58;22.60;59.60
51476;DHT22;37554;50.362;7.568;2022-10-16T11:30:27;22.60;58.90
51476;DHT22;37554;50.362;7.568;2022-10-16T11:35:45;22.70;58.60
51476;DHT22;37554;50.362;7.568;2022-10-16T11:38:20;22.80;58.60
51476;DHT22;37554;50.362;7.568;2022-10-16T11:40:50;22.80;58.60
51476;DHT22;37554;50.362;7.568;2022-10-16T11:43:26;22.80;58.70
51476;DHT22;37554;50.362;7.568;2022-10-16T12:24:54;22.40;60.30
51476;DHT22;37554;50.362;7.568;2022-10-16T12:27:30;22.30;60.40
51476;DHT22;37554;50.362;7.568;2022-10-16T12:30:02;22.30;60.40
51476;DHT22;37554;50.362;7.568;2022-10-16T12:32:34;22.30;60.50
51476;DHT22;37554;50.362;7.568;2022-10-16T12:35:01;22.30;60.30
51476;DHT22;37554;50.362;7.568;2022-10-16T12:37:32;22.30;60.30
51476;DHT22;37554;50.362;7.568;2022-10-16T12:39:59;22.30;60.30
51476;DHT22;37554;50.362;7.568;2022-10-16T12:44:55;22.20;60.50
51476;DHT22;37554;50.362;7.568;2022-10-16T12:47:22;22.10;60.60
51476;DHT22;37554;50.362;7.568;2022-10-16T12:49:53;22.10;60.70
51476;DHT22;37554;50.362;7.568;2022-10-16T12:52:46;22.10;60.80
51476;DHT22;37554;50.362;7.568;2022-10-16T12:55:19;22.00;60.80
51476;DHT22;37554;50.362;7.568;2022-10-16T13:15:22;22.00;61.10
51476;DHT22;37554;50.362;7.568;2022-10-16T13:18:21;22.00;61.10
51476;DHT22;37554;50.362;7.568;2022-10-16T13:23:48;22.20;60.70
51476;DHT22;37554;50.362;7.568;2022-10-16T13:29:16;22.60;60.00
51476;DHT22;37554;50.362;7.568;2022-10-16T13:31:43;22.70;59.50
51476;DHT22;37554;50.362;7.568;2022-10-16T13:34:15;22.70;59.30
51476;DHT22;37554;50.362;7.568;2022-10-16T13:36:53;22.60;59.40
51476;DHT22;37554;50.362;7.568;2022-10-16T13:39:27;22.60;59.60
51476;DHT22;37554;50.362;7.568;2022-10-16T13:44:44;22.60;59.60
51476;DHT22;37554;50.362;7.568;2022-10-16T13:47:22;22.60;59.60
51476;DHT22;37554;50.362;7.568;2022-10-16T13:50:09;22.60;59.50
51476;DHT22;37554;50.362;7.568;2022-10-16T13:52:36;22.60;59.60
51476;DHT22;37554;50.362;7.568;2022-10-16T13:55:04;22.50;59.80
51476;DHT22;37554;50.362;7.568;2022-10-16T13:57:35;22.40;60.00
51476;DHT22;37554;50.362;7.568;2022-10-16T14:00:00;22.40;60.20
51476;DHT22;37554;50.362;7.568;2022-10-16T14:02:38;22.20;60.30
51476;DHT22;37554;50.362;7.568;2022-10-16T14:05:08;22.20;60.50
51476;DHT22;37554;50.362;7.568;2022-10-16T14:07:35;22.20;60.60
51476;DHT22;37554;50.362;7.568;2022-10-16T14:10:07;22.10;60.60
51476;DHT22;37554;50.362;7.568;2022-10-16T14:12:43;22.10;60.70
51476;DHT22;37554;50.362;7.568;2022-10-16T14:15:17;22.10;60.90
51476;DHT22;37554;50.362;7.568;2022-10-16T14:17:44;22.00;60.90
51476;DHT22;37554;50.362;7.568;2022-10-16T14:20:15;21.90;60.90
51476;DHT22;37554;50.362;7.568;2022-10-16T14:22:41;21.90;61.10
51476;DHT22;37554;50.362;7.568;2022-10-16T14:25:23;21.90;61.10
51476;DHT22;37554;50.362;7.568;2022-10-16T14:28:13;21.90;61.20
51476;DHT22;37554;50.362;7.568;2022-10-16T14:30:51;21.90;61.30
51476;DHT22;37554;50.362;7.568;2022-10-16T14:36:15;21.80;61.30
51476;DHT22;37554;50.362;7.568;2022-10-16T14:39:17;21.80;61.30
51476;DHT22;37554;50.362;7.568;2022-10-16T14:41:46;21.70;61.30
51476;DHT22;37554;50.362;7.568;2022-10-16T14:44:12;21.80;61.40
51476;DHT22;37554;50.362;7.568;2022-10-16T14:46:40;21.70;61.40
51476;DHT22;37554;50.362;7.568;2022-10-16T14:51:35;21.70;61.50
51476;DHT22;37554;50.362;7.568;2022-10-16T14:54:01;21.70;61.50
51476;DHT22;37554;50.362;7.568;2022-10-16T14:56:31;21.70;61.50
51476;DHT22;37554;50.362;7.568;2022-10-16T14:58:59;21.70;61.50
51476;DHT22;37554;50.362;7.568;2022-10-16T15:01:25;21.70;61.50
51476;DHT22;37554;50.362;7.568;2022-10-16T15:03:51;21.70;61.40
51476;DHT22;37554;50.362;7.568;2022-10-16T15:06:19;21.70;61.40
51476;DHT22;37554;50.362;7.568;2022-10-16T15:08:44;21.70;61.40
51476;DHT22;37554;50.362;7.568;2022-10-16T15:11:13;21.70;61.40
51476;DHT22;37554;50.362;7.568;2022-10-16T15:13:39;21.70;61.40
51476;DHT22;37554;50.362;7.568;2022-10-16T15:16:11;21.70;61.50
51476;DHT22;37554;50.362;7.568;2022-10-16T15:18:36;21.70;61.50
51476;DHT22;37554;50.362;7.568;2022-10-16T15:21:02;21.60;61.50
51476;DHT22;37554;50.362;7.568;2022-10-16T15:23:28;21.60;61.50
51476;DHT22;37554;50.362;7.568;2022-10-16T15:25:55;21.60;61.50
51476;DHT22;37554;50.362;7.568;2022-10-16T15:28:22;21.60;61.60
51476;DHT22;37554;50.362;7.568;2022-10-16T15:30:50;21.60;61.60
51476;DHT22;37554;50.362;7.568;2022-10-16T15:33:24;21.50;61.60
51476;DHT22;37554;50.362;7.568;2022-10-16T15:35:53;21.50;61.60
51476;DHT22;37554;50.362;7.568;2022-10-16T15:38:21;21.50;61.70
51476;DHT22;37554;50.362;7.568;2022-10-16T15:40:47;21.50;61.60
51476;DHT22;37554;50.362;7.568;2022-10-16T15:43:14;21.50;61.70
51476;DHT22;37554;50.362;7.568;2022-10-16T15:45:40;21.50;61.60
51476;DHT22;37554;50.362;7.568;2022-10-16T15:48:06;21.50;61.60
51476;DHT22;37554;50.362;7.568;2022-10-16T15:50:32;21.50;61.60
51476;DHT22;37554;50.362;7.568;2022-10-16T15:52:58;21.50;61.60
51476;DHT22;37554;50.362;7.568;2022-10-16T15:55:24;21.40;61.50
51476;DHT22;37554;50.362;7.568;2022-10-16T15:57:50;21.40;61.50
51476;DHT22;37554;50.362;7.568;2022-10-16T16:00:18;21.40;61.50
51476;DHT22;37554;50.362;7.568;2022-10-16T16:02:51;21.40;61.50
51476;DHT22;37554;50.362;7.568;2022-10-16T16:05:17;21.40;61.50
51476;DHT22;37554;50.362;7.568;2022-10-16T16:07:43;21.40;61.50
51476;DHT22;37554;50.362;7.568;2022-10-16T16:10:10;21.40;61.40
51476;DHT22;37554;50.362;7.568;2022-10-16T16:12:36;21.40;61.40
51476;DHT22;37554;50.362;7.568;2022-10-16T16:15:03;21.40;61.40
51476;DHT22;37554;50.362;7.568;2022-10-16T16:17:30;21.30;61.30
51476;DHT22;37554;50.362;7.568;2022-10-16T16:19:56;21.40;61.40
51476;DHT22;37554;50.362;7.568;2022-10-16T16:22:21;21.40;61.30
51476;DHT22;37554;50.362;7.568;2022-10-16T16:24:47;21.40;61.30
51476;DHT22;37554;50.362;7.568;2022-10-16T16:27:13;21.30;61.30
51476;DHT22;37554;50.362;7.568;2022-10-16T16:29:39;21.30;61.30
51476;DHT22;37554;50.362;7.568;2022-10-16T16:32:05;21.30;61.30
51476;DHT22;37554;50.362;7.568;2022-10-16T16:34:31;21.30;61.20
51476;DHT22;37554;50.362;7.568;2022-10-16T16:36:57;21.30;61.20
51476;DHT22;37554;50.362;7.568;2022-10-16T16:39:23;21.30;61.20
51476;DHT22;37554;50.362;7.568;2022-10-16T16:41:49;21.30;61.20
51476;DHT22;37554;50.362;7.568;2022-10-16T16:44:15;21.30;61.20
51476;DHT22;37554;50.362;7.568;2022-10-16T16:46:42;21.30;61.20
51476;DHT22;37554;50.362;7.568;2022-10-16T16:49:10;21.30;61.20
51476;DHT22;37554;50.362;7.568;2022-10-16T16:51:36;21.30;61.20
51476;DHT22;37554;50.362;7.568;2022-10-16T16:54:02;21.30;61.20
51476;DHT22;37554;50.362;7.568;2022-10-16T16:56:28;21.30;61.20
51476;DHT22;37554;50.362;7.568;2022-10-16T16:58:55;21.30;61.20
51476;DHT22;37554;50.362;7.568;2022-10-16T17:01:23;21.30;61.10
51476;DHT22;37554;50.362;7.568;2022-10-16T17:03:51;21.30;61.10
51476;DHT22;37554;50.362;7.568;2022-10-16T17:06:19;21.30;61.10
51476;DHT22;37554;50.362;7.568;2022-10-16T17:08:45;21.30;61.10
51476;DHT22;37554;50.362;7.568;2022-10-16T17:11:12;21.20;61.10
51476;DHT22;37554;50.362;7.568;2022-10-16T17:13:39;21.30;61.10
51476;DHT22;37554;50.362;7.568;2022-10-16T17:16:06;21.20;61.10
51476;DHT22;37554;50.362;7.568;2022-10-16T17:18:32;21.20;61.00
51476;DHT22;37554;50.362;7.568;2022-10-16T17:20:59;21.20;61.10
51476;DHT22;37554;50.362;7.568;2022-10-16T17:23:25;21.20;61.00
51476;DHT22;37554;50.362;7.568;2022-10-16T17:25:51;21.20;61.00
51476;DHT22;37554;50.362;7.568;2022-10-16T17:28:17;21.20;61.10
51476;DHT22;37554;50.362;7.568;2022-10-16T17:30:43;21.20;61.00
51476;DHT22;37554;50.362;7.568;2022-10-16T17:33:10;21.20;61.10
51476;DHT22;37554;50.362;7.568;2022-10-16T17:35:38;21.20;61.10
51476;DHT22;37554;50.362;7.568;2022-10-16T17:38:04;21.20;61.10
51476;DHT22;37554;50.362;7.568;2022-10-16T17:40:29;21.20;61.00
51476;DHT22;37554;50.362;7.568;2022-10-16T17:42:55;21.20;61.10
51476;DHT22;37554;50.362;7.568;2022-10-16T17:45:21;21.20;61.00
51476;DHT22;37554;50.362;7.568;2022-10-16T17:47:47;21.20;61.10
51476;DHT22;37554;50.362;7.568;2022-10-16T17:50:12;21.20;61.10
51476;DHT22;37554;50.362;7.568;2022-10-16T17:52:38;21.20;61.10
51476;DHT22;37554;50.362;7.568;2022-10-16T17:55:04;21.20;61.10
51476;DHT22;37554;50.362;7.568;2022-10-16T17:57:30;21.20;61.10
51476;DHT22;37554;50.362;7.568;2022-10-16T17:59:56;21.20;61.10
51476;DHT22;37554;50.362;7.568;2022-10-16T18:02:21;21.20;61.10
51476;DHT22;37554;50.362;7.568;2022-10-16T18:04:49;21.20;61.10
51476;DHT22;37554;50.362;7.568;2022-10-16T18:07:16;21.20;61.10
51476;DHT22;37554;50.362;7.568;2022-10-16T18:09:41;21.20;61.10
51476;DHT22;37554;50.362;7.568;2022-10-16T18:12:07;21.20;61.20